Aviation Digital Data Service (ADDS)

Output produced by METARs form (1206 UTC 24 February 2018)
found at http://www.aviationweather.gov/adds/metars/
 
GGOV 241100Z 35009KT CAVOK 23/13 Q1013 NOSIG
TAF GGOV 241100Z 2412/2512 30005KT CAVOK